createdAt,value
2022-08-26T00:08:07.471Z,0.2
2022-08-26T00:18:16.893Z,0.2
2022-08-26T00:28:07.460Z,0.2
2022-08-26T00:38:07.558Z,0.2
2022-08-26T00:48:07.456Z,0.2
2022-08-26T00:58:07.568Z,0.2
2022-08-26T01:08:07.472Z,0.3
2022-08-26T01:18:07.571Z,0.3
2022-08-26T01:28:07.456Z,0.3
2022-08-26T01:38:07.564Z,0.3
2022-08-26T01:48:07.451Z,0.3
2022-08-26T01:58:07.556Z,0.3
2022-08-26T02:08:07.465Z,0.4
2022-08-26T02:18:07.575Z,0.4
2022-08-26T02:28:07.660Z,0.4
2022-08-26T02:38:09.844Z,0.4
2022-08-26T02:48:07.670Z,0.4
2022-08-26T02:58:07.556Z,0.4
2022-08-26T03:08:07.657Z,0.5
2022-08-26T03:18:07.547Z,0.5
2022-08-26T03:28:07.833Z,0.5
2022-08-26T03:38:07.554Z,0.5
2022-08-26T03:48:07.663Z,0.5
2022-08-26T03:58:07.565Z,0.5
2022-08-26T04:08:07.654Z,0.6
2022-08-26T04:18:07.752Z,0.6
2022-08-26T04:28:07.653Z,0.6
2022-08-26T04:38:07.749Z,0.6
2022-08-26T04:48:07.647Z,0.6
2022-08-26T04:58:07.745Z,0.6
2022-08-26T05:08:07.652Z,0.7
2022-08-26T05:18:07.736Z,0.7
2022-08-26T05:28:07.836Z,0.7
2022-08-26T05:38:11.897Z,0.7
2022-08-26T05:48:07.851Z,0.7
2022-08-26T05:58:07.732Z,0.7
2022-08-26T06:08:07.831Z,0.8
2022-08-26T06:18:07.728Z,0.8
2022-08-26T06:28:07.829Z,0.8
2022-08-26T06:38:07.726Z,0.8
2022-08-26T06:48:07.823Z,0.8
2022-08-26T06:58:07.929Z,0.8
2022-08-26T07:08:07.806Z,0.9
2022-08-26T07:18:07.913Z,0.9
2022-08-26T07:28:07.822Z,0.9
2022-08-26T07:38:07.923Z,0.9
2022-08-26T07:48:07.802Z,0.9
2022-08-26T07:58:07.908Z,0.9
2022-08-26T08:08:26.441Z,1
2022-08-26T08:18:15.409Z,1
2022-08-26T08:28:08.157Z,1
2022-08-26T08:38:08.015Z,1
2022-08-26T08:48:08.183Z,1
2022-08-26T08:58:08.335Z,1
2022-08-26T09:08:08.037Z,1.1
2022-08-26T09:18:08.094Z,1.1
2022-08-26T09:28:08.073Z,1.1
2022-08-26T09:38:10.402Z,1.1
2022-08-26T09:48:08.011Z,1.1
2022-08-26T09:58:08.844Z,1.1
2022-08-26T10:08:08.122Z,1.2
2022-08-26T10:18:08.176Z,1.2
2022-08-26T10:28:08.199Z,1.2
2022-08-26T10:38:08.216Z,1.2
2022-08-26T10:48:08.244Z,1.2
2022-08-26T10:58:09.046Z,1.2
2022-08-26T11:08:08.204Z,1.4
2022-08-26T11:18:08.310Z,1.4
2022-08-26T11:28:08.328Z,1.4
2022-08-26T11:38:08.348Z,1.4
2022-08-26T11:48:08.181Z,1.4
2022-08-26T11:58:08.310Z,1.4
2022-08-26T12:08:08.264Z,1.5
2022-08-26T12:18:08.340Z,1.5
2022-08-26T12:28:08.229Z,1.5
2022-08-26T12:38:08.329Z,1.5
2022-08-26T12:48:08.358Z,1.5
2022-08-26T12:58:08.285Z,1.5
2022-08-26T13:08:08.280Z,1.6
2022-08-26T13:18:08.166Z,1.6
2022-08-26T13:28:08.272Z,1.6
2022-08-26T13:38:08.165Z,1.6
2022-08-26T13:48:08.450Z,1.6
2022-08-26T13:58:08.260Z,1.6
2022-08-26T14:08:08.471Z,1.7
2022-08-26T14:18:08.367Z,1.7
2022-08-26T14:28:08.251Z,1.7
2022-08-26T14:38:08.357Z,1.7
2022-08-26T14:48:08.441Z,1.7
2022-08-26T14:58:08.476Z,1.7
2022-08-26T15:08:08.432Z,1.8
2022-08-26T15:18:08.474Z,1.8
2022-08-26T15:28:08.253Z,1.8
2022-08-26T15:38:08.495Z,1.8
2022-08-26T15:48:08.442Z,1.8
2022-08-26T15:58:08.492Z,1.8
2022-08-26T16:08:08.628Z,1.9
2022-08-26T16:18:08.334Z,1.9
2022-08-26T16:28:11.511Z,1.9
2022-08-26T16:38:08.476Z,1.9
2022-08-26T16:48:08.582Z,1.9
2022-08-26T16:58:08.561Z,1.9
2022-08-26T17:08:08.677Z,2
2022-08-26T17:18:08.553Z,2
2022-08-26T17:28:12.774Z,2
2022-08-26T17:38:08.972Z,2
2022-08-26T17:48:08.716Z,2
2022-08-26T17:58:08.763Z,2
2022-08-26T18:08:08.475Z,2.1
2022-08-26T18:18:08.607Z,2.1
2022-08-26T18:28:08.676Z,2.1
2022-08-26T18:38:10.959Z,2.1
2022-08-26T18:48:09.768Z,2.1
2022-08-26T18:58:09.717Z,2.1
2022-08-26T19:08:09.740Z,2.2
2022-08-26T19:18:08.628Z,2.2
2022-08-26T19:28:08.744Z,2.2
2022-08-26T19:38:09.570Z,2.3
2022-08-26T19:48:08.921Z,2.3
2022-08-26T19:58:08.737Z,2.3
2022-08-26T20:08:08.959Z,2.3
2022-08-26T20:18:08.751Z,2.3
2022-08-26T20:28:08.941Z,2.3
2022-08-26T20:38:08.952Z,2.4
2022-08-26T20:48:08.773Z,2.4
2022-08-26T20:58:08.878Z,2.4
2022-08-26T21:08:08.813Z,2.4
2022-08-26T21:18:08.890Z,2.4
2022-08-26T21:28:08.877Z,2.4
2022-08-26T21:38:08.860Z,2.5
2022-08-26T21:48:08.803Z,2.5
2022-08-26T21:58:08.776Z,2.5
2022-08-26T22:08:09.124Z,2.6
2022-08-26T22:18:08.865Z,2.6
2022-08-26T22:28:08.949Z,2.6
2022-08-26T22:38:08.946Z,2.6
2022-08-26T22:48:08.985Z,2.6
2022-08-26T22:58:08.869Z,2.6
2022-08-26T23:08:09.051Z,0
2022-08-26T23:18:08.719Z,0
2022-08-26T23:28:09.032Z,0
2022-08-26T23:38:09.013Z,0.1
2022-08-26T23:48:08.956Z,0.1
2022-08-26T23:58:09.333Z,0.1
